Hiyodori — JD2366 — position and weather

sailwx.info

Track history (hours):
 
Tides and Currents Weather Stations Pressure Air Temp Water Temp Dewpoint Dewpoint Depression Visibility Wind Speed Wind Dir Waves Ship Positions

Hiyodori

Last reported at 2016-Aug-27 13:20 UTC. Time now 2016-Aug-30 17:11 UTC.
Position N 34°59' E 139°27'.

Length 88 m; draft 3.6 m.

Type: Cargo ship. MMSI: 431000132.

Date/timePositionNaut miles runAvg speedWind from/ knotsBaromVisibWave heightAir tempDewpointWater temp
2016-Aug-27 13:20N 34°59' E 139°27'1412.3
2016-Aug-27 12:10N 35°07' E 139°42'812.5
2016-Aug-27 11:33N 35°14' E 139°46'1111.3
2016-Aug-27 10:33N 35°25' E 139°43'5 4.8
2016-Aug-27 09:33N 35°28' E 139°47'0 0.0
2016-Aug-27 08:33N 35°28' E 139°47'4 3.9
2016-Aug-27 07:33N 35°26' E 139°43'3 2.8
2016-Aug-27 06:33N 35°24' E 139°41'6 2.8
2016-Aug-27 04:33N 35°29' E 139°45'1 0.8
2016-Aug-27 03:33N 35°29' E 139°45'6 6.3
2016-Aug-27 02:33N 35°23' E 139°46'1010.1
2016-Aug-27 01:33N 35°13' E 139°47'24 0.7
2016-Aug-25 15:31N 34°56' E 139°26'1313.3
2016-Aug-25 14:34N 35°04' E 139°38'1313.2
2016-Aug-25 13:33N 35°16' E 139°46'1111.4
2016-Aug-25 12:33N 35°26' E 139°41'0 0.0
2016-Aug-25 11:31N 35°26' E 139°41'0 0.0
2016-Aug-25 10:31N 35°26' E 139°41'2 1.6
2016-Aug-25 09:34N 35°26' E 139°43'0 0.5
2016-Aug-25 08:33N 35°26' E 139°43'4 4.0
2016-Aug-25 07:31N 35°29' E 139°39'0 0.0
2016-Aug-25 06:31N 35°29' E 139°39'0 0.0
2016-Aug-25 04:31N 35°29' E 139°39'0 0.0
2016-Aug-25 03:31N 35°29' E 139°39'0 0.0
2016-Aug-25 02:31N 35°29' E 139°39'0 0.0
2016-Aug-25 01:31N 35°29' E 139°39'0 0.0
2016-Aug-25 00:31N 35°29' E 139°39'0 0.0
2016-Aug-24 23:31N 35°29' E 139°39'0 0.0
2016-Aug-24 22:31N 35°29' E 139°39'0 0.0
2016-Aug-24 21:31N 35°29' E 139°39'0 0.0
2016-Aug-24 20:31N 35°29' E 139°39'0 0.0
2016-Aug-24 19:31N 35°29' E 139°39'0 0.0
2016-Aug-24 18:31N 35°29' E 139°39'0 0.0
2016-Aug-24 17:31N 35°29' E 139°39'0 0.0
2016-Aug-24 16:31N 35°29' E 139°39'0 0.0
2016-Aug-24 15:31N 35°29' E 139°39'0 0.0
2016-Aug-24 14:31N 35°29' E 139°39'0 0.0
2016-Aug-24 13:28N 35°29' E 139°39'0 0.0
2016-Aug-24 12:28N 35°29' E 139°39'0 0.0
2016-Aug-24 11:31N 35°29' E 139°39'0 0.0
2016-Aug-24 10:31N 35°29' E 139°39'0 0.0
2016-Aug-24 09:31N 35°29' E 139°39'0 0.0
2016-Aug-24 08:28N 35°29' E 139°39'2 2.0
2016-Aug-24 07:33N 35°27' E 139°41'7 7.4
2016-Aug-24 06:33N 35°30' E 139°49'7 3.5
2016-Aug-24 04:31N 35°36' E 139°46'0 0.0
2016-Aug-24 03:31N 35°36' E 139°46'0 0.0
2016-Aug-24 02:31N 35°36' E 139°46'4 4.1
2016-Aug-24 01:34N 35°34' E 139°50'3 2.9
2016-Aug-24 00:33N 35°33' E 139°53'0 0.0
2016-Aug-23 23:30N 35°33' E 139°53'0 0.1
2016-Aug-23 22:33N 35°33' E 139°53'0 0.0
2016-Aug-23 21:33N 35°33' E 139°53'0 0.0
2016-Aug-23 20:33N 35°33' E 139°53'0 0.0
2016-Aug-23 19:33N 35°33' E 139°53'0 0.0
2016-Aug-23 18:33N 35°33' E 139°53'0 0.0
2016-Aug-23 17:09N 35°33' E 139°53'0 0.1
2016-Aug-23 16:33N 35°33' E 139°53'0 0.0
2016-Aug-23 15:33N 35°33' E 139°53'0 0.0
2016-Aug-23 14:27N 35°33' E 139°53'0 0.0
2016-Aug-23 13:30N 35°33' E 139°53'0 0.1
2016-Aug-23 12:33N 35°33' E 139°53'0 0.0
2016-Aug-23 11:30N 35°33' E 139°53'0 0.0
2016-Aug-23 10:33N 35°33' E 139°53'4 4.5
2016-Aug-23 09:33N 35°29' E 139°52'1212.4
2016-Aug-23 08:33N 35°18' E 139°44'1211.9
2016-Aug-23 07:33N 35°07' E 139°45'61 5.8
2016-Aug-22 21:04N 35°02' E 138°30'3 6.3
2016-Aug-22 20:33N 34°60' E 138°33'  
2016-Aug-20 15:06N 34°54' E 139°23'712.1
2016-Aug-20 14:30N 34°58' E 139°30'1212.7
2016-Aug-20 13:33N 35°06' E 139°41'1212.1
2016-Aug-20 12:33N 35°18' E 139°44'7 6.7
2016-Aug-20 11:33N 35°24' E 139°41'1 0.7
2016-Aug-20 10:33N 35°23' E 139°41'3 2.8
2016-Aug-20 09:32N 35°26' E 139°41'0 0.0
2016-Aug-20 08:32N 35°26' E 139°41'0 0.0
2016-Aug-20 07:32N 35°26' E 139°41'0 0.0
2016-Aug-20 06:32N 35°26' E 139°41'0 0.4
2016-Aug-20 05:33N 35°27' E 139°41'4 4.4
2016-Aug-20 04:33N 35°29' E 139°45'0 0.2
2016-Aug-20 03:32N 35°29' E 139°45'0 0.0
2016-Aug-20 02:32N 35°29' E 139°45'5 5.5
2016-Aug-20 01:33N 35°24' E 139°46'10 9.7
2016-Aug-20 00:33N 35°14' E 139°47'1110.8
2016-Aug-19 23:32N 35°04' E 139°44'  
2016-Aug-17 14:31N 35°01' E 139°31'1111.5
2016-Aug-17 13:32N 35°07' E 139°43'  
Track history (hours):
 
Tides and Currents Weather Stations Pressure Air Temp Water Temp Dewpoint Dewpoint Depression Visibility Wind Speed Wind Dir Waves Ship Positions

Hiyodori

Last reported at 2016-Aug-27 13:20 UTC. Time now 2016-Aug-30 17:11 UTC.
Position N 34°59' E 139°27'.

Length 88 m; draft 3.6 m.

Type: Cargo ship. MMSI: 431000132.

Date/timePositionNaut miles runAvg speedWind from/ knotsBaromVisibWave heightAir tempDewpointWater temp
2016-Aug-27 13:20N 34°59' E 139°27'1412.3
2016-Aug-27 12:10N 35°07' E 139°42'812.5
2016-Aug-27 11:33N 35°14' E 139°46'1111.3
2016-Aug-27 10:33N 35°25' E 139°43'5 4.8
2016-Aug-27 09:33N 35°28' E 139°47'0 0.0
2016-Aug-27 08:33N 35°28' E 139°47'4 3.9
2016-Aug-27 07:33N 35°26' E 139°43'3 2.8
2016-Aug-27 06:33N 35°24' E 139°41'6 2.8
2016-Aug-27 04:33N 35°29' E 139°45'1 0.8
2016-Aug-27 03:33N 35°29' E 139°45'6 6.3
2016-Aug-27 02:33N 35°23' E 139°46'1010.1
2016-Aug-27 01:33N 35°13' E 139°47'24 0.7
2016-Aug-25 15:31N 34°56' E 139°26'1313.3
2016-Aug-25 14:34N 35°04' E 139°38'1313.2
2016-Aug-25 13:33N 35°16' E 139°46'1111.4
2016-Aug-25 12:33N 35°26' E 139°41'0 0.0
2016-Aug-25 11:31N 35°26' E 139°41'0 0.0
2016-Aug-25 10:31N 35°26' E 139°41'2 1.6
2016-Aug-25 09:34N 35°26' E 139°43'0 0.5
2016-Aug-25 08:33N 35°26' E 139°43'4 4.0
2016-Aug-25 07:31N 35°29' E 139°39'0 0.0
2016-Aug-25 06:31N 35°29' E 139°39'0 0.0
2016-Aug-25 04:31N 35°29' E 139°39'0 0.0
2016-Aug-25 03:31N 35°29' E 139°39'0 0.0
2016-Aug-25 02:31N 35°29' E 139°39'0 0.0
2016-Aug-25 01:31N 35°29' E 139°39'0 0.0
2016-Aug-25 00:31N 35°29' E 139°39'0 0.0
2016-Aug-24 23:31N 35°29' E 139°39'0 0.0
2016-Aug-24 22:31N 35°29' E 139°39'0 0.0
2016-Aug-24 21:31N 35°29' E 139°39'0 0.0
2016-Aug-24 20:31N 35°29' E 139°39'0 0.0
2016-Aug-24 19:31N 35°29' E 139°39'0 0.0
2016-Aug-24 18:31N 35°29' E 139°39'0 0.0
2016-Aug-24 17:31N 35°29' E 139°39'0 0.0
2016-Aug-24 16:31N 35°29' E 139°39'0 0.0
2016-Aug-24 15:31N 35°29' E 139°39'0 0.0
2016-Aug-24 14:31N 35°29' E 139°39'0 0.0
2016-Aug-24 13:28N 35°29' E 139°39'0 0.0
2016-Aug-24 12:28N 35°29' E 139°39'0 0.0
2016-Aug-24 11:31N 35°29' E 139°39'0 0.0
2016-Aug-24 10:31N 35°29' E 139°39'0 0.0
2016-Aug-24 09:31N 35°29' E 139°39'0 0.0
2016-Aug-24 08:28N 35°29' E 139°39'2 2.0
2016-Aug-24 07:33N 35°27' E 139°41'7 7.4
2016-Aug-24 06:33N 35°30' E 139°49'7 3.5
2016-Aug-24 04:31N 35°36' E 139°46'0 0.0
2016-Aug-24 03:31N 35°36' E 139°46'0 0.0
2016-Aug-24 02:31N 35°36' E 139°46'4 4.1
2016-Aug-24 01:34N 35°34' E 139°50'3 2.9
2016-Aug-24 00:33N 35°33' E 139°53'0 0.0
2016-Aug-23 23:30N 35°33' E 139°53'0 0.1
2016-Aug-23 22:33N 35°33' E 139°53'0 0.0
2016-Aug-23 21:33N 35°33' E 139°53'0 0.0
2016-Aug-23 20:33N 35°33' E 139°53'0 0.0
2016-Aug-23 19:33N 35°33' E 139°53'0 0.0
2016-Aug-23 18:33N 35°33' E 139°53'0 0.0
2016-Aug-23 17:09N 35°33' E 139°53'0 0.1
2016-Aug-23 16:33N 35°33' E 139°53'0 0.0
2016-Aug-23 15:33N 35°33' E 139°53'0 0.0
2016-Aug-23 14:27N 35°33' E 139°53'0 0.0
2016-Aug-23 13:30N 35°33' E 139°53'0 0.1
2016-Aug-23 12:33N 35°33' E 139°53'0 0.0
2016-Aug-23 11:30N 35°33' E 139°53'0 0.0
2016-Aug-23 10:33N 35°33' E 139°53'4 4.5
2016-Aug-23 09:33N 35°29' E 139°52'1212.4
2016-Aug-23 08:33N 35°18' E 139°44'1211.9
2016-Aug-23 07:33N 35°07' E 139°45'61 5.8
2016-Aug-22 21:04N 35°02' E 138°30'3 6.3
2016-Aug-22 20:33N 34°60' E 138°33'  
2016-Aug-20 15:06N 34°54' E 139°23'712.1
2016-Aug-20 14:30N 34°58' E 139°30'1212.7
2016-Aug-20 13:33N 35°06' E 139°41'1212.1
2016-Aug-20 12:33N 35°18' E 139°44'7 6.7
2016-Aug-20 11:33N 35°24' E 139°41'1 0.7
2016-Aug-20 10:33N 35°23' E 139°41'3 2.8
2016-Aug-20 09:32N 35°26' E 139°41'0 0.0
2016-Aug-20 08:32N 35°26' E 139°41'0 0.0
2016-Aug-20 07:32N 35°26' E 139°41'0 0.0
2016-Aug-20 06:32N 35°26' E 139°41'0 0.4
2016-Aug-20 05:33N 35°27' E 139°41'4 4.4
2016-Aug-20 04:33N 35°29' E 139°45'0 0.2
2016-Aug-20 03:32N 35°29' E 139°45'0 0.0
2016-Aug-20 02:32N 35°29' E 139°45'5 5.5
2016-Aug-20 01:33N 35°24' E 139°46'10 9.7
2016-Aug-20 00:33N 35°14' E 139°47'1110.8
2016-Aug-19 23:32N 35°04' E 139°44'  
2016-Aug-17 14:31N 35°01' E 139°31'1111.5
2016-Aug-17 13:32N 35°07' E 139°43'  

Dump ship's entire track history